Time;durP1;ratioP1;P1;durP2;ratioP2;P2;SDS_P1;SDS_P2;PMS_P1;PMS_P2;Temp;Humidity;BMP_temperature;BMP_pressure;BME280_temperature;BME280_humidity;BME280_pressure;Samples;Min_cycle;Max_cycle;Signal;HPM_P1;HPM_P2
2024/01/04 00:03:53;;;;;;;3.93;2.50;;;;;;;12.33;47.07;98213.59;10385507;28;20245;-38
2024/01/04 00:08:55;;;;;;;4.57;2.60;;;;;;;12.35;46.71;98289.28;10382518;28;20232;-38
2024/01/04 00:13:59;;;;;;;3.33;2.30;;;;;;;12.20;47.47;98182.50;10384919;28;20626;-38
2024/01/04 00:19:02;;;;;;;3.80;2.33;;;;;;;11.80;47.66;98320.66;10391313;28;20201;-38
2024/01/04 00:24:04;;;;;;;5.27;2.40;;;;;;;12.87;46.50;98216.97;10391567;28;20613;-39
2024/01/04 00:29:06;;;;;;;3.67;2.37;;;;;;;12.45;46.86;98217.13;10389878;28;20205;-38
2024/01/04 00:34:08;;;;;;;2.57;2.27;;;;;;;12.29;46.42;98261.53;10397469;28;20619;-39
2024/01/04 00:39:10;;;;;;;2.83;2.10;;;;;;;11.18;47.54;98320.00;10391126;28;20241;-39
2024/01/04 00:44:12;;;;;;;3.03;2.17;;;;;;;12.41;46.46;98218.63;10395028;28;20279;-39
2024/01/04 00:49:13;;;;;;;2.87;2.20;;;;;;;12.35;46.21;98243.69;10389148;28;20663;-39
2024/01/04 00:54:15;;;;;;;2.33;2.00;;;;;;;11.98;47.08;98239.38;10390348;28;20299;-39
2024/01/04 00:59:17;;;;;;;4.80;2.37;;;;;;;12.46;46.26;98240.19;10387323;28;20260;-39
2024/01/04 01:04:19;;;;;;;5.27;2.30;;;;;;;11.68;47.65;98268.91;10394630;28;20241;-39
2024/01/04 01:09:20;;;;;;;3.53;2.10;;;;;;;11.74;47.14;98307.34;10386177;28;20791;-38
2024/01/04 01:14:22;;;;;;;5.53;2.30;;;;;;;12.41;45.76;98304.47;10389959;28;20426;-39
2024/01/04 01:19:24;;;;;;;6.57;2.57;;;;;;;12.29;46.12;98269.59;10391068;28;20236;-38
2024/01/04 01:24:26;;;;;;;2.80;2.03;;;;;;;11.93;46.32;98227.69;10393504;28;20285;-38
2024/01/04 01:29:27;;;;;;;2.70;2.13;;;;;;;12.55;45.08;98228.09;10390816;28;20232;-38
2024/01/04 01:34:29;;;;;;;1.80;1.70;;;;;;;11.05;46.74;98355.75;10391122;28;20781;-39
2024/01/04 01:39:31;;;;;;;2.77;2.07;;;;;;;11.23;46.87;98267.41;10385597;28;20242;-38
2024/01/04 01:44:33;;;;;;;2.37;2.10;;;;;;;11.67;46.13;98302.09;10365662;28;20280;-39
2024/01/04 01:49:35;;;;;;;4.37;1.90;;;;;;;11.65;45.96;98324.81;10387691;28;20304;-38
2024/01/04 01:54:39;;;;;;;2.47;2.03;;;;;;;12.10;45.25;98335.91;10394721;28;20690;-39
2024/01/04 01:59:41;;;;;;;3.20;2.03;;;;;;;12.52;44.60;98319.78;10380796;28;20316;-38
2024/01/04 02:04:43;;;;;;;2.40;2.20;;;;;;;12.33;44.63;98361.13;10384275;28;20620;-39
2024/01/04 02:09:44;;;;;;;2.10;1.90;;;;;;;12.64;43.59;98464.69;10379848;28;20239;-39
2024/01/04 02:14:48;;;;;;;2.30;2.00;;;;;;;12.86;44.15;98346.03;10392881;28;20647;-39
2024/01/04 02:19:49;;;;;;;3.13;1.93;;;;;;;13.41;43.14;98375.19;10386214;28;20705;-39
2024/01/04 02:24:51;;;;;;;3.30;2.60;;;;;;;12.24;45.24;98378.63;10375831;28;20236;-39
2024/01/04 02:29:55;;;;;;;2.57;2.27;;;;;;;11.31;45.88;98546.66;10391338;28;20315;-39
2024/01/04 02:34:56;;;;;;;3.40;2.10;;;;;;;11.60;45.36;98598.75;10388177;28;20244;-40
2024/01/04 02:39:58;;;;;;;2.40;2.20;;;;;;;13.14;44.27;98374.03;10381386;28;20321;-39
2024/01/04 02:45:00;;;;;;;6.60;2.40;;;;;;;13.04;43.82;98516.94;10387791;28;20272;-40
2024/01/04 02:50:02;;;;;;;3.07;2.20;;;;;;;12.65;45.51;98407.28;10382847;28;20609;-39
2024/01/04 02:55:04;;;;;;;5.20;2.30;;;;;;;12.64;45.45;98434.38;10382383;28;20237;-39
2024/01/04 03:00:07;;;;;;;4.47;2.77;;;;;;;12.90;44.60;98474.19;10384338;28;20233;-40
2024/01/04 03:05:09;;;;;;;2.60;2.40;;;;;;;12.22;45.83;98435.16;10374536;28;20240;-39
2024/01/04 03:10:11;;;;;;;5.20;2.40;;;;;;;11.59;46.32;98532.78;10388761;28;20238;-39
2024/01/04 03:15:12;;;;;;;3.97;2.40;;;;;;;12.11;46.80;98388.47;10375154;28;20236;-40
2024/01/04 03:20:14;;;;;;;3.77;2.60;;;;;;;12.34;45.48;98424.47;10384273;28;20268;-40
2024/01/04 03:25:16;;;;;;;4.37;2.20;;;;;;;12.35;45.68;98428.78;10378194;28;20375;-40
2024/01/04 03:30:19;;;;;;;3.90;2.43;;;;;;;12.36;45.86;98435.78;10393202;28;20231;-39
2024/01/04 03:35:21;;;;;;;4.07;2.37;;;;;;;12.26;46.19;98397.97;10380291;28;20771;-40
2024/01/04 03:40:23;;;;;;;3.17;2.30;;;;;;;12.41;45.13;98432.41;10385899;28;20235;-39
2024/01/04 03:45:25;;;;;;;4.97;2.30;;;;;;;12.53;44.87;98489.63;10387559;28;20236;-39
2024/01/04 03:50:26;;;;;;;3.57;2.20;;;;;;;11.67;46.01;98505.72;10391255;28;20337;-40
2024/01/04 03:55:28;;;;;;;4.10;2.20;;;;;;;11.59;46.66;98497.94;10389637;28;20295;-39
2024/01/04 04:00:30;;;;;;;3.43;2.43;;;;;;;12.85;46.00;98355.94;10391472;28;20442;-39
2024/01/04 04:05:32;;;;;;;4.13;2.17;;;;;;;12.70;44.84;98489.78;10389123;28;20245;-40
2024/01/04 04:10:34;;;;;;;4.10;2.20;;;;;;;11.94;46.37;98455.31;10387484;28;20794;-39
2024/01/04 04:15:36;;;;;;;3.53;2.20;;;;;;;11.53;46.34;98612.19;10387474;28;20489;-39
2024/01/04 04:20:38;;;;;;;3.47;2.23;;;;;;;10.61;47.70;98619.75;10388608;28;20213;-39
2024/01/04 04:25:40;;;;;;;5.30;2.50;;;;;;;11.20;47.54;98524.94;10391827;28;20773;-39
2024/01/04 04:30:41;;;;;;;5.07;2.60;;;;;;;10.89;47.85;98539.16;10390570;28;20637;-39
2024/01/04 04:35:43;;;;;;;3.13;2.40;;;;;;;11.44;47.38;98522.44;10380332;28;20408;-39
2024/01/04 04:40:59;;;;;;;2.87;2.43;;;;;;;10.65;48.54;98583.53;10393771;28;20736;-39
2024/01/04 04:46:03;;;;;;;3.23;2.43;;;;;;;11.05;47.25;98586.81;10391094;28;20319;-39
2024/01/04 04:51:05;;;;;;;2.83;2.10;;;;;;;11.01;47.21;98576.75;10383650;28;20244;-39
2024/01/04 04:56:08;;;;;;;4.07;2.50;;;;;;;12.15;46.22;98443.28;10388247;28;20303;-39
2024/01/04 05:05:12;;;;;;;4.27;2.40;;;;;;;9.13;52.61;98381.63;10516127;27;21169;-68
2024/01/04 05:10:14;;;;;;;5.23;2.00;;;;;;;8.79;52.80;98412.84;10400494;28;20350;-68
2024/01/04 05:15:15;;;;;;;6.57;2.97;;;;;;;8.82;53.00;98368.94;10427669;28;20307;-68
2024/01/04 05:20:17;;;;;;;3.30;2.17;;;;;;;9.86;50.71;98369.88;10428233;28;20235;-68
2024/01/04 05:25:19;;;;;;;6.43;3.10;;;;;;;10.11;49.42;98462.66;10426664;28;20242;-67
2024/01/04 05:30:20;;;;;;;4.50;2.50;;;;;;;8.39;52.01;98595.97;10430889;28;20665;-67
2024/01/04 05:35:22;;;;;;;6.67;2.50;;;;;;;8.67;51.18;98615.34;10423825;28;20240;-68
2024/01/04 05:40:24;;;;;;;3.17;2.40;;;;;;;10.04;50.30;98421.78;10434672;28;20224;-69
2024/01/04 05:45:26;;;;;;;4.77;2.37;;;;;;;10.68;49.31;98407.34;10431033;28;20297;-71
2024/01/04 05:50:27;;;;;;;7.70;2.80;;;;;;;9.44;50.27;98556.31;10424100;28;20240;-71
2024/01/04 05:55:30;;;;;;;5.07;2.60;;;;;;;10.32;49.11;98475.69;10424853;28;20248;-71
2024/01/04 06:00:31;;;;;;;3.37;2.20;;;;;;;9.32;49.60;98694.13;10422292;28;20267;-69
2024/01/04 06:05:33;;;;;;;4.43;2.40;;;;;;;10.45;48.76;98520.25;10423394;28;20247;-69
2024/01/04 06:10:35;;;;;;;4.60;2.30;;;;;;;10.07;49.15;98582.56;10427891;28;20671;-70
2024/01/04 06:15:37;;;;;;;8.53;2.70;;;;;;;10.30;48.81;98602.63;10402924;28;20232;-70
2024/01/04 06:20:39;;;;;;;5.33;2.70;;;;;;;10.05;50.04;98551.72;10475501;28;20296;-70
2024/01/04 06:25:40;;;;;;;5.97;2.40;;;;;;;10.18;49.42;98583.75;10465869;28;20286;-70
2024/01/04 06:30:42;;;;;;;6.50;2.67;;;;;;;10.00;49.92;98621.00;10457949;28;20791;-70
2024/01/04 06:35:44;;;;;;;13.00;3.40;;;;;;;9.47;49.78;98750.84;10490202;28;20246;-70
2024/01/04 06:40:46;;;;;;;4.13;2.80;;;;;;;10.41;49.10;98612.66;10491089;28;20682;-70
2024/01/04 06:45:49;;;;;;;5.97;3.17;;;;;;;9.47;49.67;98830.97;10497674;28;20349;-70
2024/01/04 06:50:51;;;;;;;5.83;3.57;;;;;;;10.30;49.23;98642.72;10501124;28;21171;-70
2024/01/04 06:55:53;;;;;;;5.07;2.80;;;;;;;10.30;49.15;98654.22;10493264;28;20235;-69
2024/01/04 07:00:56;;;;;;;7.70;3.20;;;;;;;10.67;48.27;98611.72;10487377;28;20236;-70
2024/01/04 07:05:58;;;;;;;3.90;2.30;;;;;;;9.81;49.23;98698.28;10495830;28;20420;-70
2024/01/04 07:11:04;;;;;;;6.00;2.60;;;;;;;10.50;47.81;98661.38;10497194;28;20235;-70
2024/01/04 07:16:05;;;;;;;4.73;2.60;;;;;;;10.08;47.80;98818.59;10492010;28;20288;-71
2024/01/04 07:21:07;;;;;;;4.97;3.10;;;;;;;10.28;47.73;98717.00;10475620;28;20233;-71
2024/01/04 07:26:09;;;;;;;5.47;3.20;;;;;;;10.08;47.88;98767.78;10469117;28;20230;-70
2024/01/04 07:31:11;;;;;;;9.00;3.27;;;;;;;9.47;47.96;98836.31;10480629;28;20231;-70
2024/01/04 07:36:14;;;;;;;8.93;3.23;;;;;;;9.34;47.74;98838.94;10472998;28;20242;-70
2024/01/04 07:41:16;;;;;;;5.70;2.73;;;;;;;10.52;46.49;98704.78;10490989;28;20705;-70
2024/01/04 07:46:17;;;;;;;6.87;2.77;;;;;;;10.94;45.90;98724.00;10476779;28;20296;-70
2024/01/04 07:51:19;;;;;;;3.50;2.50;;;;;;;9.63;47.28;98819.09;10485495;28;20725;-70
2024/01/04 07:56:21;;;;;;;8.83;3.50;;;;;;;9.78;47.41;98800.22;10485307;28;20522;-70
2024/01/04 08:01:23;;;;;;;8.40;2.77;;;;;;;10.64;46.06;98769.97;10487554;28;20222;-70
2024/01/04 08:06:24;;;;;;;6.43;2.93;;;;;;;10.80;45.21;98805.38;10480428;28;20824;-69
2024/01/04 08:11:26;;;;;;;6.73;2.97;;;;;;;11.04;45.18;98804.69;10486197;28;20372;-70
2024/01/04 08:16:28;;;;;;;9.27;2.93;;;;;;;10.62;45.37;98864.88;10474402;28;20813;-70
2024/01/04 08:21:30;;;;;;;9.03;3.20;;;;;;;10.69;45.58;98854.97;10469459;28;20341;-70
2024/01/04 08:26:32;;;;;;;8.13;2.83;;;;;;;10.33;46.09;98907.84;10491257;28;20239;-70
2024/01/04 08:31:33;;;;;;;5.90;2.80;;;;;;;10.33;45.32;99006.81;10480374;28;20223;-70
2024/01/04 08:36:35;;;;;;;8.63;2.93;;;;;;;10.56;45.60;98937.91;10480199;28;20239;-70
2024/01/04 08:41:37;;;;;;;3.70;2.40;;;;;;;11.32;45.36;98881.22;10486671;28;20279;-70
2024/01/04 08:46:39;;;;;;;5.40;2.70;;;;;;;10.73;46.72;98831.28;10483548;28;20235;-70
2024/01/04 08:51:40;;;;;;;5.40;2.73;;;;;;;10.53;45.91;99006.03;10488873;28;20318;-69
2024/01/04 08:56:42;;;;;;;5.17;2.60;;;;;;;11.14;46.28;98900.63;10484928;28;20284;-71
2024/01/04 09:01:44;;;;;;;4.60;2.60;;;;;;;10.41;46.76;98962.16;10485502;28;20235;-70
2024/01/04 09:06:46;;;;;;;4.63;2.57;;;;;;;12.32;44.08;98804.78;10482290;28;20246;-70
2024/01/04 09:11:48;;;;;;;8.40;2.80;;;;;;;10.81;45.05;99016.56;10480544;28;20223;-72
2024/01/04 09:16:50;;;;;;;5.30;2.40;;;;;;;10.31;46.72;98936.66;10487147;28;20489;-71
2024/01/04 09:21:52;;;;;;;4.17;2.60;;;;;;;9.49;47.20;99039.88;10486102;28;20227;-72
2024/01/04 09:26:54;;;;;;;2.77;2.53;;;;;;;10.26;46.47;99008.63;10484380;28;20230;-71
2024/01/04 09:31:56;;;;;;;5.93;2.30;;;;;;;9.65;47.86;99012.06;10484038;28;20613;-72
2024/01/04 09:36:58;;;;;;;5.13;2.40;;;;;;;10.53;47.08;98872.28;10484956;28;20525;-71
2024/01/04 09:41:59;;;;;;;3.70;1.90;;;;;;;9.75;47.42;99003.66;10485747;28;20289;-71
2024/01/04 09:47:07;;;;;;;6.20;3.10;;;;;;;10.05;46.99;99001.56;10482261;28;20694;-70
2024/01/04 09:52:09;;;;;;;6.17;2.53;;;;;;;10.31;46.97;98966.06;10504014;28;20580;-72
2024/01/04 09:57:11;;;;;;;5.70;2.83;;;;;;;11.00;46.31;98923.09;10498192;28;20361;-71
2024/01/04 10:02:17;;;;;;;5.93;2.80;;;;;;;9.78;47.30;99062.06;10473242;28;20243;-72
2024/01/04 10:07:22;;;;;;;7.17;2.40;;;;;;;11.18;45.62;98941.19;10454718;22;20682;-38
2024/01/04 10:12:29;;;;;;;4.07;2.70;;;;;;;11.21;45.93;98898.75;10438105;28;20228;-35
2024/01/04 10:17:32;;;;;;;2.93;2.43;;;;;;;11.28;45.91;98909.44;10392518;28;20612;-36
2024/01/04 10:22:35;;;;;;;5.30;2.70;;;;;;;10.01;46.72;99101.91;10406107;28;20313;-40
2024/01/04 10:27:37;;;;;;;5.77;2.70;;;;;;;10.00;47.37;98995.19;10408119;28;20241;-43
2024/01/04 10:32:38;;;;;;;5.57;2.37;;;;;;;10.21;46.27;99011.09;10392133;28;20641;-40
2024/01/04 10:37:40;;;;;;;4.57;2.17;;;;;;;10.63;46.52;98966.31;10424364;28;20235;-42
2024/01/04 10:42:53;;;;;;;5.30;2.27;;;;;;;10.37;47.19;99011.75;10473675;28;20330;-43
2024/01/04 10:47:55;;;;;;;4.97;3.23;;;;;;;10.89;46.61;99027.09;10473482;28;20759;-43
2024/01/04 10:52:59;;;;;;;5.03;3.03;;;;;;;11.76;45.79;98984.16;10476817;28;20236;-41
2024/01/04 10:58:04;;;;;;;4.03;2.70;;;;;;;11.90;46.48;98994.81;10455014;28;20235;-40
2024/01/04 11:06:14;;;;;;;7.43;2.90;;;;;;;10.89;49.31;98895.94;10413584;28;20855;-66
2024/01/04 11:11:18;;;;;;;5.23;2.60;;;;;;;9.71;50.23;99018.44;10342103;28;20230;-66
2024/01/04 11:16:26;;;;;;;4.80;2.47;;;;;;;9.80;49.60;99027.13;10346344;28;20234;-65
2024/01/04 11:21:49;;;;;;;8.13;3.57;;;;;;;9.78;49.84;98921.25;10343785;28;20268;-65
2024/01/04 11:26:52;;;;;;;4.13;3.27;;;;;;;9.23;49.60;98963.13;10337152;28;20542;-64
2024/01/04 11:31:59;;;;;;;6.70;2.80;;;;;;;10.02;48.08;98919.09;10356421;28;20233;-65
2024/01/04 11:37:18;;;;;;;4.43;2.77;;;;;;;10.16;49.27;98903.94;10357718;28;20247;-65
2024/01/04 11:42:20;;;;;;;6.20;2.70;;;;;;;9.46;49.59;99060.81;10357453;28;20307;-65
2024/01/04 11:47:25;;;;;;;5.53;2.83;;;;;;;10.69;48.48;98928.03;10355556;28;20252;-65
2024/01/04 11:52:30;;;;;;;10.30;3.10;;;;;;;10.39;48.93;98940.97;10357737;28;20234;-65
2024/01/04 11:57:32;;;;;;;5.43;3.13;;;;;;;9.46;49.77;99056.28;10364798;28;20326;-65
2024/01/04 12:02:34;;;;;;;10.63;3.47;;;;;;;10.14;48.99;98922.84;10374538;28;20716;-65
2024/01/04 12:07:36;;;;;;;8.07;3.27;;;;;;;9.61;49.21;99076.75;10377896;28;20328;-65
2024/01/04 12:12:41;;;;;;;5.47;3.00;;;;;;;9.66;49.30;98992.31;10381823;28;20350;-65
2024/01/04 12:17:43;;;;;;;10.63;3.40;;;;;;;10.60;48.39;98875.78;10352299;28;20240;-65
2024/01/04 12:22:45;;;;;;;9.43;3.30;;;;;;;11.77;46.51;98934.84;10339806;28;20933;-66
2024/01/04 12:27:47;;;;;;;8.67;3.00;;;;;;;12.14;45.66;98920.84;10349420;28;20328;-65
2024/01/04 12:32:50;;;;;;;6.90;3.37;;;;;;;11.76;46.47;98961.88;10346957;28;20265;-65
2024/01/04 12:37:59;;;;;;;7.60;3.00;;;;;;;13.18;44.75;98963.44;10349523;28;20739;-65
2024/01/04 12:43:01;;;;;;;6.10;3.03;;;;;;;11.04;46.61;99056.34;10363330;28;20477;-65
2024/01/04 12:48:05;;;;;;;8.47;2.70;;;;;;;11.62;44.76;99007.50;10351696;28;20237;-65
2024/01/04 12:53:07;;;;;;;9.10;4.10;;;;;;;11.77;44.81;99007.22;10343748;28;20240;-65
2024/01/04 12:58:10;;;;;;;6.63;3.03;;;;;;;10.91;45.77;99091.13;10351467;28;20287;-65
2024/01/04 13:03:12;;;;;;;6.30;2.67;;;;;;;10.79;46.50;98996.41;10349382;28;20320;-65
2024/01/04 13:08:14;;;;;;;7.00;2.80;;;;;;;10.93;46.31;99054.25;10352344;28;20726;-65
2024/01/04 13:13:16;;;;;;;7.10;3.43;;;;;;;11.20;46.26;98969.44;10344354;28;20225;-65
2024/01/04 13:18:18;;;;;;;8.07;4.07;;;;;;;12.25;45.29;98927.38;10347345;28;20237;-65
2024/01/04 13:23:20;;;;;;;6.73;3.43;;;;;;;11.49;45.80;99017.38;10341528;28;20249;-65
2024/01/04 13:28:22;;;;;;;7.40;2.97;;;;;;;11.31;46.14;98978.66;10341557;28;20276;-65
2024/01/04 13:33:26;;;;;;;6.23;3.23;;;;;;;11.02;46.10;99105.78;10342914;28;20234;-65
2024/01/04 13:38:28;;;;;;;5.87;2.97;;;;;;;10.84;45.66;99109.84;10337496;28;20236;-65
2024/01/04 13:43:30;;;;;;;3.60;2.47;;;;;;;10.95;46.53;98985.31;10311927;28;20238;-66
2024/01/04 13:48:34;;;;;;;13.30;3.83;;;;;;;11.54;45.24;98985.41;10307082;28;20576;-66
2024/01/04 13:53:36;;;;;;;5.00;2.80;;;;;;;12.09;44.43;98920.69;10300928;28;20862;-65
2024/01/04 13:58:41;;;;;;;9.27;3.27;;;;;;;11.21;45.04;99107.63;10299798;28;20281;-65
2024/01/04 14:03:43;;;;;;;5.47;2.67;;;;;;;10.73;46.30;99008.75;10297881;28;20697;-67
2024/01/04 14:08:45;;;;;;;7.30;2.63;;;;;;;11.24;46.01;98997.44;10307044;28;20230;-64
2024/01/04 14:13:47;;;;;;;6.63;2.97;;;;;;;11.86;45.04;99004.31;10302748;28;20322;-66
2024/01/04 14:18:49;;;;;;;5.67;2.60;;;;;;;11.57;45.50;99003.75;10308318;28;20725;-66
2024/01/04 14:23:51;;;;;;;8.33;3.20;;;;;;;12.01;45.09;99026.31;10297957;28;20234;-65
2024/01/04 14:28:53;;;;;;;6.03;2.67;;;;;;;11.24;46.79;99002.78;10307629;28;20230;-66
2024/01/04 14:33:55;;;;;;;7.23;2.97;;;;;;;10.30;47.90;99116.84;10292784;28;20234;-67
2024/01/04 14:38:57;;;;;;;9.80;2.87;;;;;;;11.81;46.39;98938.78;10306314;28;20265;-68
2024/01/04 14:43:58;;;;;;;7.77;2.93;;;;;;;11.58;46.30;99016.13;10299922;28;20674;-68
2024/01/04 14:49:02;;;;;;;6.73;2.60;;;;;;;10.87;47.09;98929.31;10300178;28;20322;-69
2024/01/04 14:54:04;;;;;;;7.97;2.83;;;;;;;10.88;47.39;99019.25;10304410;28;20301;-72
2024/01/04 14:59:06;;;;;;;4.03;2.40;;;;;;;11.75;46.38;98923.53;10311409;28;20699;-67
2024/01/04 15:04:08;;;;;;;7.13;3.00;;;;;;;12.07;46.16;98987.94;10307570;28;20314;-66
2024/01/04 15:09:15;;;;;;;6.00;3.00;;;;;;;12.10;46.14;98909.75;10302115;28;20210;-67
2024/01/04 15:14:17;;;;;;;9.57;2.60;;;;;;;11.73;46.85;98965.81;10311894;28;20241;-66
2024/01/04 15:19:19;;;;;;;5.53;2.77;;;;;;;10.79;47.87;99103.47;10297855;28;20321;-67
2024/01/04 15:24:21;;;;;;;6.77;3.37;;;;;;;11.55;47.69;98987.06;10305381;28;20295;-65
2024/01/04 15:29:22;;;;;;;8.37;4.37;;;;;;;11.81;46.82;98980.81;10312231;28;20317;-67
2024/01/04 15:34:24;;;;;;;6.53;4.20;;;;;;;13.10;44.90;98938.50;10312990;28;20236;-68
2024/01/04 15:39:26;;;;;;;7.23;3.50;;;;;;;13.13;45.03;98937.25;10311443;28;20238;-68
2024/01/04 15:44:28;;;;;;;6.97;4.37;;;;;;;12.52;46.01;98977.19;10313338;28;20242;-67
2024/01/04 15:49:29;;;;;;;10.27;5.40;;;;;;;12.53;45.40;99037.84;10314306;28;20241;-68
2024/01/04 15:54:32;;;;;;;11.83;5.77;;;;;;;13.00;44.85;98993.75;10320038;28;20248;-68
2024/01/04 15:59:34;;;;;;;10.47;5.57;;;;;;;13.08;44.81;98975.50;10318671;28;20741;-68
2024/01/04 16:04:36;;;;;;;7.47;3.90;;;;;;;12.01;46.16;98999.50;10317205;28;20285;-68
2024/01/04 16:09:38;;;;;;;10.60;4.60;;;;;;;12.03;46.32;99004.66;10317613;28;20672;-68
2024/01/04 16:14:39;;;;;;;8.00;4.17;;;;;;;11.96;45.35;99106.56;10287344;28;20719;-67
2024/01/04 16:19:41;;;;;;;6.13;3.40;;;;;;;13.02;44.06;99018.53;10300029;28;21401;-66
2024/01/04 16:24:43;;;;;;;5.77;3.80;;;;;;;13.41;44.14;98935.94;10350512;28;20245;-66
2024/01/04 16:29:45;;;;;;;9.27;4.90;;;;;;;13.73;43.40;98935.78;10359351;28;20263;-67
2024/01/04 16:34:47;;;;;;;10.20;4.57;;;;;;;12.70;44.47;99077.59;10355329;28;20429;-66
2024/01/04 16:39:48;;;;;;;8.47;4.90;;;;;;;13.00;44.16;99005.31;10345110;28;20715;-66
2024/01/04 16:44:50;;;;;;;9.17;4.17;;;;;;;13.35;43.27;99017.47;10355803;28;20257;-66
2024/01/04 16:49:52;;;;;;;7.07;4.33;;;;;;;13.33;43.53;98995.34;10357864;28;20319;-65
2024/01/04 16:54:54;;;;;;;5.17;3.47;;;;;;;12.26;45.03;99052.41;10358369;28;20239;-68
2024/01/04 16:59:56;;;;;;;6.60;2.97;;;;;;;12.39;44.90;99014.81;10353709;28;20735;-69
2024/01/04 17:04:57;;;;;;;7.87;3.27;;;;;;;12.91;43.83;98969.88;10352174;28;20704;-69
2024/01/04 17:09:59;;;;;;;3.63;2.60;;;;;;;12.52;44.68;98989.78;10351662;28;20272;-69
2024/01/04 17:15:01;;;;;;;5.30;3.40;;;;;;;12.46;44.50;98959.22;10357001;28;20256;-69
2024/01/04 17:20:05;;;;;;;6.13;3.43;;;;;;;13.05;43.57;98910.66;10352916;28;20237;-66
2024/01/04 17:25:07;;;;;;;5.73;3.60;;;;;;;12.65;44.13;99013.81;10350332;28;20340;-69
2024/01/04 17:30:09;;;;;;;6.87;3.53;;;;;;;12.55;44.12;98984.81;10350044;28;21024;-69
2024/01/04 17:35:11;;;;;;;4.23;3.13;;;;;;;13.03;42.88;98990.63;10310979;28;20655;-69
2024/01/04 17:40:13;;;;;;;4.00;3.27;;;;;;;13.21;43.54;98883.22;10341087;28;20307;-68
2024/01/04 17:45:14;;;;;;;5.10;3.00;;;;;;;13.25;43.29;98895.16;10318727;28;20233;-68
2024/01/04 17:50:16;;;;;;;4.40;2.63;;;;;;;12.22;44.30;98970.75;10320473;28;20210;-67
2024/01/04 17:55:18;;;;;;;5.37;3.57;;;;;;;12.31;45.25;98883.59;10322418;28;20521;-66
2024/01/04 18:00:19;;;;;;;5.87;3.03;;;;;;;10.91;46.25;99045.63;10321911;28;20217;-66
2024/01/04 18:05:21;;;;;;;3.93;3.03;;;;;;;9.86;47.13;99075.28;10324479;28;20685;-66
2024/01/04 18:10:23;;;;;;;4.83;3.37;;;;;;;10.89;45.68;99040.47;10351103;28;20217;-65
2024/01/04 18:15:25;;;;;;;5.10;3.27;;;;;;;12.32;44.34;98933.53;10356509;28;20278;-66
2024/01/04 18:20:27;;;;;;;7.57;3.30;;;;;;;10.11;47.65;98991.94;10361835;28;20240;-66
2024/01/04 18:25:29;;;;;;;6.20;3.23;;;;;;;11.13;46.47;98939.13;10359433;28;20233;-66
2024/01/04 18:30:30;;;;;;;5.77;2.77;;;;;;;11.68;46.02;98846.91;10355700;28;20763;-66
2024/01/04 18:35:35;;;;;;;8.07;4.13;;;;;;;11.29;47.30;98812.00;10358784;28;20236;-66
2024/01/04 18:40:36;;;;;;;8.03;4.23;;;;;;;9.93;48.60;98998.63;10347346;28;20260;-66
2024/01/04 18:45:38;;;;;;;10.43;3.40;;;;;;;9.34;50.49;98911.81;10354839;28;20272;-66
2024/01/04 18:50:40;;;;;;;7.27;3.13;;;;;;;10.29;48.88;98879.03;10350559;28;20236;-67
2024/01/04 18:55:42;;;;;;;4.33;3.00;;;;;;;9.71;49.46;98960.50;10353756;28;20229;-66
2024/01/04 19:00:43;;;;;;;6.20;3.80;;;;;;;12.41;45.80;98786.53;10350020;28;20234;-66
2024/01/04 19:05:45;;;;;;;8.43;3.73;;;;;;;10.87;47.32;98916.75;10354098;28;20252;-66
2024/01/04 19:10:47;;;;;;;10.13;3.70;;;;;;;10.34;49.01;98828.44;10351431;28;20851;-66
2024/01/04 19:15:48;;;;;;;7.67;3.10;;;;;;;11.96;45.70;98873.31;10347845;28;20713;-66
2024/01/04 19:21:01;;;;;;;8.70;4.23;;;;;;;10.66;47.36;98965.91;10357308;28;20233;-66
2024/01/04 19:26:02;;;;;;;9.87;4.10;;;;;;;10.06;49.15;98898.97;10327788;28;20644;-66
2024/01/04 19:31:04;;;;;;;6.33;3.60;;;;;;;10.64;48.64;98771.84;10360538;28;20260;-66
2024/01/04 19:36:06;;;;;;;7.10;3.33;;;;;;;10.64;49.13;98729.03;10369332;28;20234;-66
2024/01/04 19:41:09;;;;;;;7.33;3.73;;;;;;;9.94;50.25;98746.41;10360726;28;20644;-69
2024/01/04 19:46:11;;;;;;;8.07;3.47;;;;;;;11.52;46.43;98798.06;10352893;28;20238;-70
2024/01/04 19:51:12;;;;;;;6.37;3.27;;;;;;;11.40;46.26;98914.97;10323782;28;20232;-71
2024/01/04 19:56:14;;;;;;;9.03;3.63;;;;;;;11.45;46.77;98821.41;10365080;28;20296;-68
2024/01/04 20:01:16;;;;;;;11.30;4.53;;;;;;;12.41;44.29;98900.03;10364375;28;20233;-69
2024/01/04 20:06:18;;;;;;;8.80;4.53;;;;;;;12.28;44.87;98838.44;10365139;28;20245;-69
2024/01/04 20:11:20;;;;;;;7.53;4.23;;;;;;;11.48;45.58;98936.19;10363921;28;20229;-71
2024/01/04 20:16:22;;;;;;;8.23;4.20;;;;;;;12.41;44.58;98894.66;10349825;28;20238;-70
2024/01/04 20:21:23;;;;;;;10.93;3.80;;;;;;;13.64;42.83;98809.72;10320536;28;20728;-68
2024/01/04 20:26:25;;;;;;;7.57;3.63;;;;;;;12.76;43.45;98928.28;10364632;28;20237;-69
2024/01/04 20:31:27;;;;;;;7.83;3.90;;;;;;;12.53;43.59;98930.50;10354163;28;20399;-70
2024/01/04 20:36:28;;;;;;;8.33;4.20;;;;;;;11.75;44.89;98875.28;10360207;28;20236;-69
2024/01/04 20:41:30;;;;;;;7.93;3.97;;;;;;;11.22;45.59;98902.25;10349526;28;20601;-68
2024/01/04 20:46:32;;;;;;;8.47;3.63;;;;;;;13.27;42.60;98815.16;10360667;28;20626;-69
2024/01/04 20:51:34;;;;;;;9.43;3.80;;;;;;;10.31;46.76;98842.25;10329145;28;20231;-70
2024/01/04 20:56:38;;;;;;;9.83;4.37;;;;;;;11.67;43.83;98960.47;10326037;28;20245;-70
2024/01/04 21:01:40;;;;;;;9.27;3.50;;;;;;;12.46;43.41;98865.31;10336861;28;20249;-71
2024/01/04 21:06:42;;;;;;;7.10;3.30;;;;;;;10.83;46.25;98764.81;10311404;28;20347;-73
2024/01/04 21:11:51;;;;;;;5.33;3.17;;;;;;;10.62;45.42;98878.25;10336220;28;20234;-72
2024/01/04 21:16:53;;;;;;;10.33;4.13;;;;;;;11.71;44.36;98774.94;10335791;28;20652;-73
2024/01/04 21:21:55;;;;;;;7.63;3.00;;;;;;;12.22;43.77;98813.31;10315925;28;20245;-70
2024/01/04 21:26:57;;;;;;;6.27;3.37;;;;;;;13.20;41.56;98860.09;10313766;28;20246;-70
2024/01/04 21:31:59;;;;;;;7.23;3.40;;;;;;;12.90;42.21;98847.38;10306317;28;20701;-70
2024/01/04 21:37:00;;;;;;;7.50;3.70;;;;;;;12.03;43.49;98892.03;10310797;28;20325;-70
2024/01/04 21:42:03;;;;;;;9.13;3.17;;;;;;;13.14;41.11;98901.25;10310761;28;20253;-70
2024/01/04 21:47:05;;;;;;;9.93;3.50;;;;;;;12.00;43.19;98839.69;10309876;28;20668;-70
2024/01/04 21:52:06;;;;;;;7.33;3.60;;;;;;;13.16;41.53;98781.00;10310048;28;20320;-71
2024/01/04 21:57:08;;;;;;;7.73;3.63;;;;;;;13.43;41.18;98893.53;10311205;28;20264;-72
2024/01/04 22:02:10;;;;;;;7.63;3.70;;;;;;;13.14;41.48;98793.00;10304904;28;21693;-73
2024/01/04 22:07:11;;;;;;;8.63;6.80;;;;;;;12.48;42.38;98894.66;10361925;22;20714;-35
2024/01/04 22:12:13;;;;;;;10.30;5.90;;;;;;;13.21;41.57;98828.66;10361424;28;20312;-35
2024/01/04 22:17:15;;;;;;;11.23;5.23;;;;;;;13.87;40.42;98821.63;10354463;28;20233;-35
2024/01/04 22:22:16;;;;;;;10.77;5.17;;;;;;;13.56;40.52;98901.44;10267468;23;20311;-34
2024/01/04 22:27:18;;;;;;;9.40;4.40;;;;;;;13.60;40.07;98923.34;10229826;28;20250;-34
2024/01/04 22:32:20;;;;;;;8.63;3.70;;;;;;;14.02;39.92;98772.78;10228569;28;20680;-35
2024/01/04 22:37:22;;;;;;;6.33;3.80;;;;;;;14.87;38.78;98790.38;10231083;28;20235;-35
2024/01/04 22:42:25;;;;;;;8.30;3.60;;;;;;;13.51;39.68;98943.47;10227516;28;20669;-34
2024/01/04 22:47:26;;;;;;;10.00;4.10;;;;;;;14.23;39.37;98872.84;10224725;29;20247;-34
2024/01/04 22:52:28;;;;;;;6.70;3.30;;;;;;;14.63;38.65;98835.31;10231363;28;20253;-34
2024/01/04 22:57:30;;;;;;;6.50;3.80;;;;;;;12.81;40.81;98901.59;10225339;28;20275;-34
2024/01/04 23:02:32;;;;;;;10.67;4.00;;;;;;;12.65;41.34;98799.09;10228387;29;20235;-34
2024/01/04 23:07:34;;;;;;;4.80;3.67;;;;;;;12.13;42.29;98852.16;10226009;28;20777;-34
2024/01/04 23:12:36;;;;;;;7.77;3.80;;;;;;;12.32;41.52;98842.34;10232527;28;20326;-34
2024/01/04 23:17:38;;;;;;;4.27;3.23;;;;;;;13.09;40.90;98707.72;10225582;28;20236;-35
2024/01/04 23:22:40;;;;;;;7.20;3.57;;;;;;;12.12;43.01;98652.91;10231056;28;20240;-34
2024/01/04 23:27:42;;;;;;;11.40;3.57;;;;;;;11.85;42.82;98673.78;10224274;28;20250;-34
2024/01/04 23:32:44;;;;;;;6.23;3.33;;;;;;;13.35;40.70;98682.41;10245002;28;20239;-34
2024/01/04 23:37:46;;;;;;;5.23;3.83;;;;;;;14.17;39.08;98667.41;10227252;28;20630;-34